sensor_id;sensor_type;location;lat;lon;timestamp;P1;durP1;ratioP1;P2;durP2;ratioP2
2644;SDS011;15377;48.540;9.268;2023-01-23T00:00:33;38.60;;;22.77;;
2644;SDS011;15377;48.540;9.268;2023-01-23T00:02:59;37.28;;;22.73;;
2644;SDS011;15377;48.540;9.268;2023-01-23T00:05:25;37.43;;;23.60;;
2644;SDS011;15377;48.540;9.268;2023-01-23T00:07:50;40.43;;;23.03;;
2644;SDS011;15377;48.540;9.268;2023-01-23T00:10:16;37.90;;;22.75;;
2644;SDS011;15377;48.540;9.268;2023-01-23T00:12:42;37.50;;;22.13;;
2644;SDS011;15377;48.540;9.268;2023-01-23T00:15:09;41.90;;;22.38;;
2644;SDS011;15377;48.540;9.268;2023-01-23T00:17:36;36.95;;;22.48;;
2644;SDS011;15377;48.540;9.268;2023-01-23T00:20:01;38.17;;;22.10;;
2644;SDS011;15377;48.540;9.268;2023-01-23T00:22:28;38.08;;;23.40;;
2644;SDS011;15377;48.540;9.268;2023-01-23T00:24:53;38.97;;;22.77;;
2644;SDS011;15377;48.540;9.268;2023-01-23T00:27:19;37.17;;;22.17;;
2644;SDS011;15377;48.540;9.268;2023-01-23T00:29:44;41.20;;;24.17;;
2644;SDS011;15377;48.540;9.268;2023-01-23T00:32:10;34.73;;;19.37;;
2644;SDS011;15377;48.540;9.268;2023-01-23T00:34:36;38.20;;;22.00;;
2644;SDS011;15377;48.540;9.268;2023-01-23T00:37:02;42.58;;;23.42;;
2644;SDS011;15377;48.540;9.268;2023-01-23T00:39:27;39.10;;;21.80;;
2644;SDS011;15377;48.540;9.268;2023-01-23T00:41:53;33.27;;;21.43;;
2644;SDS011;15377;48.540;9.268;2023-01-23T00:44:18;35.47;;;21.27;;
2644;SDS011;15377;48.540;9.268;2023-01-23T00:46:43;38.27;;;23.47;;
2644;SDS011;15377;48.540;9.268;2023-01-23T00:49:09;36.10;;;21.63;;
2644;SDS011;15377;48.540;9.268;2023-01-23T00:51:34;34.70;;;22.27;;
2644;SDS011;15377;48.540;9.268;2023-01-23T00:54:00;34.73;;;21.23;;
2644;SDS011;15377;48.540;9.268;2023-01-23T00:56:26;34.93;;;23.00;;
2644;SDS011;15377;48.540;9.268;2023-01-23T00:58:51;34.53;;;21.87;;
2644;SDS011;15377;48.540;9.268;2023-01-23T01:01:17;56.50;;;30.73;;
2644;SDS011;15377;48.540;9.268;2023-01-23T01:03:43;37.90;;;23.35;;
2644;SDS011;15377;48.540;9.268;2023-01-23T01:06:09;41.22;;;22.90;;
2644;SDS011;15377;48.540;9.268;2023-01-23T01:08:35;32.80;;;21.83;;
2644;SDS011;15377;48.540;9.268;2023-01-23T01:11:00;42.93;;;23.00;;
2644;SDS011;15377;48.540;9.268;2023-01-23T01:13:26;36.60;;;21.83;;
2644;SDS011;15377;48.540;9.268;2023-01-23T01:15:53;36.78;;;21.60;;
2644;SDS011;15377;48.540;9.268;2023-01-23T01:18:19;55.08;;;31.17;;
2644;SDS011;15377;48.540;9.268;2023-01-23T01:20:46;73.85;;;41.47;;
2644;SDS011;15377;48.540;9.268;2023-01-23T01:23:12;41.10;;;23.67;;
2644;SDS011;15377;48.540;9.268;2023-01-23T01:25:38;90.10;;;48.83;;
2644;SDS011;15377;48.540;9.268;2023-01-23T01:28:04;40.70;;;22.13;;
2644;SDS011;15377;48.540;9.268;2023-01-23T01:30:30;86.87;;;47.23;;
2644;SDS011;15377;48.540;9.268;2023-01-23T01:32:55;36.43;;;21.13;;
2644;SDS011;15377;48.540;9.268;2023-01-23T01:35:21;40.03;;;23.30;;
2644;SDS011;15377;48.540;9.268;2023-01-23T01:37:47;38.50;;;21.13;;
2644;SDS011;15377;48.540;9.268;2023-01-23T01:40:15;39.17;;;21.07;;
2644;SDS011;15377;48.540;9.268;2023-01-23T01:42:49;34.35;;;21.75;;
2644;SDS011;15377;48.540;9.268;2023-01-23T01:48:24;38.90;;;19.80;;
2644;SDS011;15377;48.540;9.268;2023-01-23T01:50:55;33.55;;;19.40;;
2644;SDS011;15377;48.540;9.268;2023-01-23T01:53:22;34.47;;;20.98;;
2644;SDS011;15377;48.540;9.268;2023-01-23T01:55:50;32.95;;;19.63;;
2644;SDS011;15377;48.540;9.268;2023-01-23T01:58:16;36.07;;;18.53;;
2644;SDS011;15377;48.540;9.268;2023-01-23T02:00:42;37.17;;;20.77;;
2644;SDS011;15377;48.540;9.268;2023-01-23T02:03:07;36.33;;;20.63;;
2644;SDS011;15377;48.540;9.268;2023-01-23T02:05:34;32.03;;;19.17;;
2644;SDS011;15377;48.540;9.268;2023-01-23T02:08:08;36.83;;;21.42;;
2644;SDS011;15377;48.540;9.268;2023-01-23T02:10:41;31.88;;;21.40;;
2644;SDS011;15377;48.540;9.268;2023-01-23T02:13:17;36.28;;;21.52;;
2644;SDS011;15377;48.540;9.268;2023-01-23T02:15:43;30.15;;;18.38;;
2644;SDS011;15377;48.540;9.268;2023-01-23T02:18:09;35.88;;;22.05;;
2644;SDS011;15377;48.540;9.268;2023-01-23T02:20:34;41.53;;;21.50;;
2644;SDS011;15377;48.540;9.268;2023-01-23T02:23:12;35.20;;;21.73;;
2644;SDS011;15377;48.540;9.268;2023-01-23T02:25:52;34.28;;;20.75;;
2644;SDS011;15377;48.540;9.268;2023-01-23T02:28:21;33.60;;;19.70;;
2644;SDS011;15377;48.540;9.268;2023-01-23T02:30:47;35.40;;;22.05;;
2644;SDS011;15377;48.540;9.268;2023-01-23T02:35:48;35.15;;;22.85;;
2644;SDS011;15377;48.540;9.268;2023-01-23T02:38:14;39.33;;;22.45;;
2644;SDS011;15377;48.540;9.268;2023-01-23T02:40:44;35.35;;;21.05;;
2644;SDS011;15377;48.540;9.268;2023-01-23T02:43:11;33.00;;;19.77;;
2644;SDS011;15377;48.540;9.268;2023-01-23T02:45:39;36.97;;;20.80;;
2644;SDS011;15377;48.540;9.268;2023-01-23T02:48:05;33.57;;;19.83;;
2644;SDS011;15377;48.540;9.268;2023-01-23T02:50:32;36.65;;;20.58;;
2644;SDS011;15377;48.540;9.268;2023-01-23T02:52:58;38.47;;;22.00;;
2644;SDS011;15377;48.540;9.268;2023-01-23T02:55:23;36.80;;;22.60;;
2644;SDS011;15377;48.540;9.268;2023-01-23T02:57:57;40.55;;;22.65;;
2644;SDS011;15377;48.540;9.268;2023-01-23T03:00:43;39.47;;;21.65;;
2644;SDS011;15377;48.540;9.268;2023-01-23T03:03:09;34.20;;;21.02;;
2644;SDS011;15377;48.540;9.268;2023-01-23T03:05:34;33.77;;;20.50;;
2644;SDS011;15377;48.540;9.268;2023-01-23T03:08:00;35.57;;;22.07;;
2644;SDS011;15377;48.540;9.268;2023-01-23T03:10:25;39.77;;;22.83;;
2644;SDS011;15377;48.540;9.268;2023-01-23T03:12:51;39.00;;;21.63;;
2644;SDS011;15377;48.540;9.268;2023-01-23T03:15:16;41.97;;;21.10;;
2644;SDS011;15377;48.540;9.268;2023-01-23T03:17:41;37.23;;;21.90;;
2644;SDS011;15377;48.540;9.268;2023-01-23T03:20:07;34.70;;;20.53;;
2644;SDS011;15377;48.540;9.268;2023-01-23T03:22:33;31.02;;;20.55;;
2644;SDS011;15377;48.540;9.268;2023-01-23T03:24:58;34.07;;;20.87;;
2644;SDS011;15377;48.540;9.268;2023-01-23T03:27:25;36.28;;;20.42;;
2644;SDS011;15377;48.540;9.268;2023-01-23T03:29:50;33.83;;;20.70;;
2644;SDS011;15377;48.540;9.268;2023-01-23T03:32:34;34.03;;;19.02;;
2644;SDS011;15377;48.540;9.268;2023-01-23T03:35:01;38.08;;;21.75;;
2644;SDS011;15377;48.540;9.268;2023-01-23T03:37:26;32.57;;;19.50;;
2644;SDS011;15377;48.540;9.268;2023-01-23T03:39:52;34.23;;;20.00;;
2644;SDS011;15377;48.540;9.268;2023-01-23T03:42:35;33.95;;;20.05;;
2644;SDS011;15377;48.540;9.268;2023-01-23T03:45:01;38.27;;;20.07;;
2644;SDS011;15377;48.540;9.268;2023-01-23T03:47:27;38.00;;;22.07;;
2644;SDS011;15377;48.540;9.268;2023-01-23T03:49:52;33.53;;;21.43;;
2644;SDS011;15377;48.540;9.268;2023-01-23T03:52:17;32.13;;;20.07;;
2644;SDS011;15377;48.540;9.268;2023-01-23T03:54:43;36.30;;;21.00;;
2644;SDS011;15377;48.540;9.268;2023-01-23T03:57:09;32.63;;;19.60;;
2644;SDS011;15377;48.540;9.268;2023-01-23T03:59:34;38.47;;;20.13;;
2644;SDS011;15377;48.540;9.268;2023-01-23T04:02:00;38.87;;;21.00;;
2644;SDS011;15377;48.540;9.268;2023-01-23T04:04:28;33.15;;;18.00;;
2644;SDS011;15377;48.540;9.268;2023-01-23T04:06:54;35.00;;;20.40;;
2644;SDS011;15377;48.540;9.268;2023-01-23T04:09:20;34.10;;;20.27;;
2644;SDS011;15377;48.540;9.268;2023-01-23T04:11:50;36.78;;;21.90;;
2644;SDS011;15377;48.540;9.268;2023-01-23T04:14:15;32.27;;;19.67;;
2644;SDS011;15377;48.540;9.268;2023-01-23T04:16:40;33.73;;;18.87;;
2644;SDS011;15377;48.540;9.268;2023-01-23T04:19:06;35.10;;;21.30;;
2644;SDS011;15377;48.540;9.268;2023-01-23T04:21:31;34.30;;;20.23;;
2644;SDS011;15377;48.540;9.268;2023-01-23T04:23:56;33.10;;;19.90;;
2644;SDS011;15377;48.540;9.268;2023-01-23T04:26:22;33.43;;;19.80;;
2644;SDS011;15377;48.540;9.268;2023-01-23T04:28:47;30.77;;;17.70;;
2644;SDS011;15377;48.540;9.268;2023-01-23T04:31:12;31.87;;;19.20;;
2644;SDS011;15377;48.540;9.268;2023-01-23T04:33:37;34.50;;;18.37;;
2644;SDS011;15377;48.540;9.268;2023-01-23T04:36:04;30.90;;;18.60;;
2644;SDS011;15377;48.540;9.268;2023-01-23T04:38:30;36.65;;;20.88;;
2644;SDS011;15377;48.540;9.268;2023-01-23T04:40:57;37.28;;;20.88;;
2644;SDS011;15377;48.540;9.268;2023-01-23T04:43:22;36.50;;;21.53;;
2644;SDS011;15377;48.540;9.268;2023-01-23T04:45:51;35.50;;;20.37;;
2644;SDS011;15377;48.540;9.268;2023-01-23T04:48:18;37.30;;;19.83;;
2644;SDS011;15377;48.540;9.268;2023-01-23T04:50:43;39.43;;;21.33;;
2644;SDS011;15377;48.540;9.268;2023-01-23T04:53:09;35.27;;;19.77;;
2644;SDS011;15377;48.540;9.268;2023-01-23T04:55:35;37.17;;;21.20;;
2644;SDS011;15377;48.540;9.268;2023-01-23T04:58:00;33.03;;;19.97;;
2644;SDS011;15377;48.540;9.268;2023-01-23T05:00:27;33.80;;;19.80;;
2644;SDS011;15377;48.540;9.268;2023-01-23T05:02:53;38.85;;;21.10;;
2644;SDS011;15377;48.540;9.268;2023-01-23T05:05:19;36.55;;;21.70;;
2644;SDS011;15377;48.540;9.268;2023-01-23T05:07:45;35.53;;;21.30;;
2644;SDS011;15377;48.540;9.268;2023-01-23T05:10:11;37.97;;;22.02;;
2644;SDS011;15377;48.540;9.268;2023-01-23T05:12:38;34.50;;;19.35;;
2644;SDS011;15377;48.540;9.268;2023-01-23T05:15:04;38.43;;;21.77;;
2644;SDS011;15377;48.540;9.268;2023-01-23T05:17:30;36.47;;;21.73;;
2644;SDS011;15377;48.540;9.268;2023-01-23T05:19:55;33.37;;;20.00;;
2644;SDS011;15377;48.540;9.268;2023-01-23T05:22:21;42.50;;;24.40;;
2644;SDS011;15377;48.540;9.268;2023-01-23T05:24:46;35.43;;;19.87;;
2644;SDS011;15377;48.540;9.268;2023-01-23T05:27:12;38.77;;;20.80;;
2644;SDS011;15377;48.540;9.268;2023-01-23T05:29:37;37.43;;;20.13;;
2644;SDS011;15377;48.540;9.268;2023-01-23T05:32:03;30.87;;;18.40;;
2644;SDS011;15377;48.540;9.268;2023-01-23T05:34:28;36.47;;;19.83;;
2644;SDS011;15377;48.540;9.268;2023-01-23T05:36:54;33.77;;;19.77;;
2644;SDS011;15377;48.540;9.268;2023-01-23T05:39:19;40.73;;;22.87;;
2644;SDS011;15377;48.540;9.268;2023-01-23T05:41:44;32.83;;;20.60;;
2644;SDS011;15377;48.540;9.268;2023-01-23T05:44:10;36.67;;;20.93;;
2644;SDS011;15377;48.540;9.268;2023-01-23T05:46:35;31.47;;;18.90;;
2644;SDS011;15377;48.540;9.268;2023-01-23T05:49:01;35.23;;;20.40;;
2644;SDS011;15377;48.540;9.268;2023-01-23T05:51:26;37.40;;;19.83;;
2644;SDS011;15377;48.540;9.268;2023-01-23T05:53:56;30.80;;;18.67;;
2644;SDS011;15377;48.540;9.268;2023-01-23T05:56:23;31.80;;;19.52;;
2644;SDS011;15377;48.540;9.268;2023-01-23T05:58:48;31.80;;;19.43;;
2644;SDS011;15377;48.540;9.268;2023-01-23T06:01:14;33.30;;;18.27;;
2644;SDS011;15377;48.540;9.268;2023-01-23T06:03:39;30.77;;;18.17;;
2644;SDS011;15377;48.540;9.268;2023-01-23T06:06:04;34.43;;;19.67;;
2644;SDS011;15377;48.540;9.268;2023-01-23T06:08:30;34.03;;;20.20;;
2644;SDS011;15377;48.540;9.268;2023-01-23T06:10:56;35.43;;;19.27;;
2644;SDS011;15377;48.540;9.268;2023-01-23T06:13:23;30.08;;;18.10;;
2644;SDS011;15377;48.540;9.268;2023-01-23T06:15:49;37.60;;;19.55;;
2644;SDS011;15377;48.540;9.268;2023-01-23T06:18:14;37.40;;;19.83;;
2644;SDS011;15377;48.540;9.268;2023-01-23T06:20:40;34.40;;;20.17;;
2644;SDS011;15377;48.540;9.268;2023-01-23T06:23:05;34.63;;;20.10;;
2644;SDS011;15377;48.540;9.268;2023-01-23T06:25:30;34.70;;;19.63;;
2644;SDS011;15377;48.540;9.268;2023-01-23T06:27:56;42.27;;;21.07;;
2644;SDS011;15377;48.540;9.268;2023-01-23T06:30:21;38.57;;;20.63;;
2644;SDS011;15377;48.540;9.268;2023-01-23T06:32:46;36.80;;;20.80;;
2644;SDS011;15377;48.540;9.268;2023-01-23T06:35:12;36.40;;;19.80;;
2644;SDS011;15377;48.540;9.268;2023-01-23T06:37:37;40.23;;;23.33;;
2644;SDS011;15377;48.540;9.268;2023-01-23T06:40:02;37.30;;;20.00;;
2644;SDS011;15377;48.540;9.268;2023-01-23T06:42:28;34.70;;;20.30;;
2644;SDS011;15377;48.540;9.268;2023-01-23T06:44:54;33.67;;;18.33;;
2644;SDS011;15377;48.540;9.268;2023-01-23T06:47:19;29.03;;;16.30;;
2644;SDS011;15377;48.540;9.268;2023-01-23T06:49:48;29.45;;;17.70;;
2644;SDS011;15377;48.540;9.268;2023-01-23T06:52:13;31.27;;;16.93;;
2644;SDS011;15377;48.540;9.268;2023-01-23T06:54:38;32.37;;;17.03;;
2644;SDS011;15377;48.540;9.268;2023-01-23T06:57:04;75.60;;;27.70;;
2644;SDS011;15377;48.540;9.268;2023-01-23T06:59:29;40.40;;;18.30;;
2644;SDS011;15377;48.540;9.268;2023-01-23T07:01:55;38.27;;;19.23;;
2644;SDS011;15377;48.540;9.268;2023-01-23T07:04:20;31.97;;;17.70;;
2644;SDS011;15377;48.540;9.268;2023-01-23T07:06:45;52.60;;;27.70;;
2644;SDS011;15377;48.540;9.268;2023-01-23T07:09:11;47.50;;;23.97;;
2644;SDS011;15377;48.540;9.268;2023-01-23T07:11:36;37.80;;;18.87;;
2644;SDS011;15377;48.540;9.268;2023-01-23T07:14:02;37.97;;;18.90;;
2644;SDS011;15377;48.540;9.268;2023-01-23T07:16:27;36.90;;;20.77;;
2644;SDS011;15377;48.540;9.268;2023-01-23T07:18:52;36.93;;;18.97;;
2644;SDS011;15377;48.540;9.268;2023-01-23T07:21:18;38.17;;;19.57;;
2644;SDS011;15377;48.540;9.268;2023-01-23T07:23:43;35.97;;;19.47;;
2644;SDS011;15377;48.540;9.268;2023-01-23T07:26:09;31.80;;;19.37;;
2644;SDS011;15377;48.540;9.268;2023-01-23T07:28:35;37.58;;;19.60;;
2644;SDS011;15377;48.540;9.268;2023-01-23T07:31:02;33.35;;;19.20;;
2644;SDS011;15377;48.540;9.268;2023-01-23T07:33:28;36.17;;;17.73;;
2644;SDS011;15377;48.540;9.268;2023-01-23T07:35:53;33.70;;;17.87;;
2644;SDS011;15377;48.540;9.268;2023-01-23T07:38:19;36.77;;;17.03;;
2644;SDS011;15377;48.540;9.268;2023-01-23T07:40:47;33.50;;;17.98;;
2644;SDS011;15377;48.540;9.268;2023-01-23T07:43:13;39.92;;;19.08;;
2644;SDS011;15377;48.540;9.268;2023-01-23T07:45:38;31.60;;;16.67;;
2644;SDS011;15377;48.540;9.268;2023-01-23T07:48:04;37.47;;;18.97;;
2644;SDS011;15377;48.540;9.268;2023-01-23T07:50:29;32.97;;;17.53;;
2644;SDS011;15377;48.540;9.268;2023-01-23T07:52:54;31.97;;;17.20;;
2644;SDS011;15377;48.540;9.268;2023-01-23T07:55:20;31.87;;;17.53;;
2644;SDS011;15377;48.540;9.268;2023-01-23T07:57:45;31.33;;;17.43;;
2644;SDS011;15377;48.540;9.268;2023-01-23T08:00:11;39.20;;;17.00;;
2644;SDS011;15377;48.540;9.268;2023-01-23T08:02:36;32.30;;;17.57;;
2644;SDS011;15377;48.540;9.268;2023-01-23T08:05:02;33.23;;;17.93;;
2644;SDS011;15377;48.540;9.268;2023-01-23T08:07:28;30.50;;;17.30;;
2644;SDS011;15377;48.540;9.268;2023-01-23T08:09:53;39.73;;;20.60;;
2644;SDS011;15377;48.540;9.268;2023-01-23T08:12:18;41.10;;;22.30;;
2644;SDS011;15377;48.540;9.268;2023-01-23T08:14:44;41.97;;;23.27;;
2644;SDS011;15377;48.540;9.268;2023-01-23T08:17:11;33.85;;;19.05;;
2644;SDS011;15377;48.540;9.268;2023-01-23T08:19:37;36.83;;;18.53;;
2644;SDS011;15377;48.540;9.268;2023-01-23T08:22:02;34.10;;;19.60;;
2644;SDS011;15377;48.540;9.268;2023-01-23T08:24:27;30.20;;;15.40;;
2644;SDS011;15377;48.540;9.268;2023-01-23T08:26:53;29.07;;;15.60;;
2644;SDS011;15377;48.540;9.268;2023-01-23T08:29:18;33.27;;;16.83;;
2644;SDS011;15377;48.540;9.268;2023-01-23T08:31:43;32.10;;;16.90;;
2644;SDS011;15377;48.540;9.268;2023-01-23T08:34:09;38.80;;;18.63;;
2644;SDS011;15377;48.540;9.268;2023-01-23T08:36:34;35.63;;;17.70;;
2644;SDS011;15377;48.540;9.268;2023-01-23T08:38:59;33.20;;;16.47;;
2644;SDS011;15377;48.540;9.268;2023-01-23T08:41:25;29.03;;;17.13;;
2644;SDS011;15377;48.540;9.268;2023-01-23T08:43:50;26.13;;;11.70;;
2644;SDS011;15377;48.540;9.268;2023-01-23T08:46:15;28.03;;;16.40;;
2644;SDS011;15377;48.540;9.268;2023-01-23T08:48:41;30.40;;;16.00;;
2644;SDS011;15377;48.540;9.268;2023-01-23T08:51:07;28.30;;;17.43;;
2644;SDS011;15377;48.540;9.268;2023-01-23T08:53:35;26.45;;;13.90;;
2644;SDS011;15377;48.540;9.268;2023-01-23T08:56:04;29.73;;;17.13;;
2644;SDS011;15377;48.540;9.268;2023-01-23T08:58:41;32.17;;;16.08;;
2644;SDS011;15377;48.540;9.268;2023-01-23T09:04:01;28.13;;;15.73;;
2644;SDS011;15377;48.540;9.268;2023-01-23T09:06:26;24.70;;;13.20;;
2644;SDS011;15377;48.540;9.268;2023-01-23T09:08:52;29.10;;;15.53;;
2644;SDS011;15377;48.540;9.268;2023-01-23T09:11:17;24.93;;;14.47;;
2644;SDS011;15377;48.540;9.268;2023-01-23T09:13:44;24.50;;;14.20;;
2644;SDS011;15377;48.540;9.268;2023-01-23T09:16:10;31.60;;;16.50;;
2644;SDS011;15377;48.540;9.268;2023-01-23T09:18:36;26.63;;;14.10;;
2644;SDS011;15377;48.540;9.268;2023-01-23T09:21:05;26.03;;;14.90;;
2644;SDS011;15377;48.540;9.268;2023-01-23T09:23:31;27.85;;;16.10;;
2644;SDS011;15377;48.540;9.268;2023-01-23T09:26:01;22.90;;;11.87;;
2644;SDS011;15377;48.540;9.268;2023-01-23T09:28:27;26.05;;;14.77;;
2644;SDS011;15377;48.540;9.268;2023-01-23T09:30:52;23.73;;;13.90;;
2644;SDS011;15377;48.540;9.268;2023-01-23T09:33:18;26.60;;;14.40;;
2644;SDS011;15377;48.540;9.268;2023-01-23T09:35:50;26.58;;;15.93;;
2644;SDS011;15377;48.540;9.268;2023-01-23T09:38:16;25.38;;;15.77;;
2644;SDS011;15377;48.540;9.268;2023-01-23T09:40:51;24.03;;;14.43;;
2644;SDS011;15377;48.540;9.268;2023-01-23T09:48:35;27.90;;;14.20;;
2644;SDS011;15377;48.540;9.268;2023-01-23T09:51:15;24.55;;;15.07;;
2644;SDS011;15377;48.540;9.268;2023-01-23T09:53:46;26.55;;;16.00;;
2644;SDS011;15377;48.540;9.268;2023-01-23T09:56:29;29.00;;;15.60;;
2644;SDS011;15377;48.540;9.268;2023-01-23T10:01:48;23.58;;;13.75;;
2644;SDS011;15377;48.540;9.268;2023-01-23T10:04:13;27.37;;;16.40;;
2644;SDS011;15377;48.540;9.268;2023-01-23T10:09:47;23.67;;;14.32;;
2644;SDS011;15377;48.540;9.268;2023-01-23T10:12:28;29.75;;;15.05;;
2644;SDS011;15377;48.540;9.268;2023-01-23T10:15:19;29.88;;;16.13;;
2644;SDS011;15377;48.540;9.268;2023-01-23T10:18:14;24.30;;;14.27;;
2644;SDS011;15377;48.540;9.268;2023-01-23T10:20:52;25.65;;;14.50;;
2644;SDS011;15377;48.540;9.268;2023-01-23T10:23:39;23.42;;;13.25;;
2644;SDS011;15377;48.540;9.268;2023-01-23T10:26:15;23.52;;;13.95;;
2644;SDS011;15377;48.540;9.268;2023-01-23T10:28:46;22.60;;;13.32;;
2644;SDS011;15377;48.540;9.268;2023-01-23T10:36:38;20.13;;;12.60;;
2644;SDS011;15377;48.540;9.268;2023-01-23T10:39:15;26.65;;;13.70;;
2644;SDS011;15377;48.540;9.268;2023-01-23T10:41:44;27.13;;;15.73;;
2644;SDS011;15377;48.540;9.268;2023-01-23T10:44:14;21.38;;;12.93;;
2644;SDS011;15377;48.540;9.268;2023-01-23T10:46:46;20.38;;;13.18;;
2644;SDS011;15377;48.540;9.268;2023-01-23T10:55:23;23.35;;;12.73;;
2644;SDS011;15377;48.540;9.268;2023-01-23T10:57:48;19.02;;;10.77;;
2644;SDS011;15377;48.540;9.268;2023-01-23T11:00:38;21.55;;;12.68;;
2644;SDS011;15377;48.540;9.268;2023-01-23T11:05:45;22.60;;;13.10;;
2644;SDS011;15377;48.540;9.268;2023-01-23T11:08:27;22.08;;;12.80;;
2644;SDS011;15377;48.540;9.268;2023-01-23T11:13:44;18.52;;;11.52;;
2644;SDS011;15377;48.540;9.268;2023-01-23T11:16:13;19.25;;;13.07;;
2644;SDS011;15377;48.540;9.268;2023-01-23T11:18:41;20.67;;;11.23;;
2644;SDS011;15377;48.540;9.268;2023-01-23T11:21:25;25.73;;;12.88;;
2644;SDS011;15377;48.540;9.268;2023-01-23T11:24:06;24.10;;;13.15;;
2644;SDS011;15377;48.540;9.268;2023-01-23T11:26:42;26.80;;;16.75;;
2644;SDS011;15377;48.540;9.268;2023-01-23T11:29:21;17.60;;;9.67;;
2644;SDS011;15377;48.540;9.268;2023-01-23T11:32:10;26.38;;;15.98;;
2644;SDS011;15377;48.540;9.268;2023-01-23T11:34:37;20.75;;;8.98;;
2644;SDS011;15377;48.540;9.268;2023-01-23T11:42:42;26.10;;;15.88;;
2644;SDS011;15377;48.540;9.268;2023-01-23T11:47:55;21.55;;;14.70;;
2644;SDS011;15377;48.540;9.268;2023-01-23T11:53:12;25.75;;;16.45;;
2644;SDS011;15377;48.540;9.268;2023-01-23T11:55:44;23.60;;;13.23;;
2644;SDS011;15377;48.540;9.268;2023-01-23T12:09:10;22.33;;;12.75;;
2644;SDS011;15377;48.540;9.268;2023-01-23T12:14:30;25.38;;;14.90;;
2644;SDS011;15377;48.540;9.268;2023-01-23T12:17:03;22.95;;;14.48;;
2644;SDS011;15377;48.540;9.268;2023-01-23T12:19:48;22.50;;;13.57;;
2644;SDS011;15377;48.540;9.268;2023-01-23T12:36:38;23.88;;;13.80;;
2644;SDS011;15377;48.540;9.268;2023-01-23T12:41:51;22.58;;;14.57;;
2644;SDS011;15377;48.540;9.268;2023-01-23T12:47:37;22.77;;;12.88;;
2644;SDS011;15377;48.540;9.268;2023-01-23T12:50:28;21.75;;;12.50;;
2644;SDS011;15377;48.540;9.268;2023-01-23T12:53:04;25.13;;;13.75;;
2644;SDS011;15377;48.540;9.268;2023-01-23T12:55:35;21.83;;;13.40;;
2644;SDS011;15377;48.540;9.268;2023-01-23T12:58:05;27.60;;;16.10;;
2644;SDS011;15377;48.540;9.268;2023-01-23T13:06:27;25.73;;;15.13;;
2644;SDS011;15377;48.540;9.268;2023-01-23T13:09:05;23.27;;;12.75;;
2644;SDS011;15377;48.540;9.268;2023-01-23T13:16:56;23.40;;;14.90;;
2644;SDS011;15377;48.540;9.268;2023-01-23T13:19:26;23.67;;;14.05;;
2644;SDS011;15377;48.540;9.268;2023-01-23T13:22:24;23.60;;;15.20;;
2644;SDS011;15377;48.540;9.268;2023-01-23T13:25:01;19.55;;;10.70;;
2644;SDS011;15377;48.540;9.268;2023-01-23T13:32:50;23.70;;;13.98;;
2644;SDS011;15377;48.540;9.268;2023-01-23T13:43:42;25.13;;;13.30;;
2644;SDS011;15377;48.540;9.268;2023-01-23T13:51:56;20.27;;;11.77;;
2644;SDS011;15377;48.540;9.268;2023-01-23T13:54:26;19.45;;;12.90;;
2644;SDS011;15377;48.540;9.268;2023-01-23T13:57:13;23.38;;;12.38;;
2644;SDS011;15377;48.540;9.268;2023-01-23T13:59:41;22.38;;;13.23;;
2644;SDS011;15377;48.540;9.268;2023-01-23T14:05:09;21.55;;;11.70;;
2644;SDS011;15377;48.540;9.268;2023-01-23T14:07:39;21.70;;;13.63;;
2644;SDS011;15377;48.540;9.268;2023-01-23T14:12:47;22.88;;;12.13;;
2644;SDS011;15377;48.540;9.268;2023-01-23T14:15:20;19.63;;;12.10;;
2644;SDS011;15377;48.540;9.268;2023-01-23T14:18:13;22.70;;;13.00;;
2644;SDS011;15377;48.540;9.268;2023-01-23T14:20:41;20.90;;;13.95;;
2644;SDS011;15377;48.540;9.268;2023-01-23T14:23:19;22.13;;;11.57;;
2644;SDS011;15377;48.540;9.268;2023-01-23T14:25:47;19.83;;;11.82;;
2644;SDS011;15377;48.540;9.268;2023-01-23T14:28:16;23.90;;;12.47;;
2644;SDS011;15377;48.540;9.268;2023-01-23T14:30:56;18.38;;;12.25;;
2644;SDS011;15377;48.540;9.268;2023-01-23T14:33:23;19.00;;;11.65;;
2644;SDS011;15377;48.540;9.268;2023-01-23T14:35:50;24.92;;;13.93;;
2644;SDS011;15377;48.540;9.268;2023-01-23T14:38:27;23.35;;;13.23;;
2644;SDS011;15377;48.540;9.268;2023-01-23T14:40:55;23.35;;;13.38;;
2644;SDS011;15377;48.540;9.268;2023-01-23T14:43:21;20.70;;;11.73;;
2644;SDS011;15377;48.540;9.268;2023-01-23T14:45:53;16.48;;;10.35;;
2644;SDS011;15377;48.540;9.268;2023-01-23T14:48:41;15.50;;;8.40;;
2644;SDS011;15377;48.540;9.268;2023-01-23T14:51:13;18.45;;;11.25;;
2644;SDS011;15377;48.540;9.268;2023-01-23T14:53:44;19.08;;;11.75;;
2644;SDS011;15377;48.540;9.268;2023-01-23T14:56:19;22.58;;;12.48;;
2644;SDS011;15377;48.540;9.268;2023-01-23T14:58:46;16.65;;;9.55;;
2644;SDS011;15377;48.540;9.268;2023-01-23T15:01:12;21.23;;;11.53;;
2644;SDS011;15377;48.540;9.268;2023-01-23T15:03:49;19.00;;;11.00;;
2644;SDS011;15377;48.540;9.268;2023-01-23T15:06:20;25.63;;;15.48;;
2644;SDS011;15377;48.540;9.268;2023-01-23T15:08:47;21.50;;;13.45;;
2644;SDS011;15377;48.540;9.268;2023-01-23T15:11:13;23.83;;;13.65;;
2644;SDS011;15377;48.540;9.268;2023-01-23T15:16:12;32.20;;;23.00;;
2644;SDS011;15377;48.540;9.268;2023-01-23T15:18:48;19.88;;;13.05;;
2644;SDS011;15377;48.540;9.268;2023-01-23T15:21:25;23.48;;;11.52;;
2644;SDS011;15377;48.540;9.268;2023-01-23T15:24:03;21.35;;;11.93;;
2644;SDS011;15377;48.540;9.268;2023-01-23T15:26:49;19.30;;;12.48;;
2644;SDS011;15377;48.540;9.268;2023-01-23T15:29:30;22.60;;;13.30;;
2644;SDS011;15377;48.540;9.268;2023-01-23T15:31:56;20.75;;;12.80;;
2644;SDS011;15377;48.540;9.268;2023-01-23T15:34:28;19.15;;;12.80;;
2644;SDS011;15377;48.540;9.268;2023-01-23T15:37:05;21.27;;;13.20;;
2644;SDS011;15377;48.540;9.268;2023-01-23T15:44:36;36.47;;;29.00;;
2644;SDS011;15377;48.540;9.268;2023-01-23T15:47:01;39.37;;;30.37;;
2644;SDS011;15377;48.540;9.268;2023-01-23T15:49:29;37.80;;;30.48;;
2644;SDS011;15377;48.540;9.268;2023-01-23T15:51:56;103.72;;;78.10;;
2644;SDS011;15377;48.540;9.268;2023-01-23T15:54:33;68.72;;;58.42;;
2644;SDS011;15377;48.540;9.268;2023-01-23T15:57:00;50.70;;;33.13;;
2644;SDS011;15377;48.540;9.268;2023-01-23T15:59:26;23.90;;;17.30;;
2644;SDS011;15377;48.540;9.268;2023-01-23T16:01:52;26.92;;;19.30;;
2644;SDS011;15377;48.540;9.268;2023-01-23T16:04:18;21.80;;;13.90;;
2644;SDS011;15377;48.540;9.268;2023-01-23T16:06:45;23.38;;;18.67;;
2644;SDS011;15377;48.540;9.268;2023-01-23T16:09:30;25.55;;;17.38;;
2644;SDS011;15377;48.540;9.268;2023-01-23T16:11:58;23.75;;;13.50;;
2644;SDS011;15377;48.540;9.268;2023-01-23T16:14:24;27.58;;;20.40;;
2644;SDS011;15377;48.540;9.268;2023-01-23T16:16:50;26.60;;;17.07;;
2644;SDS011;15377;48.540;9.268;2023-01-23T16:19:15;37.43;;;22.63;;
2644;SDS011;15377;48.540;9.268;2023-01-23T16:21:41;27.07;;;16.33;;
2644;SDS011;15377;48.540;9.268;2023-01-23T16:24:21;26.05;;;16.85;;
2644;SDS011;15377;48.540;9.268;2023-01-23T16:26:47;24.73;;;14.85;;
2644;SDS011;15377;48.540;9.268;2023-01-23T16:29:26;28.55;;;15.57;;
2644;SDS011;15377;48.540;9.268;2023-01-23T16:31:54;25.38;;;14.45;;
2644;SDS011;15377;48.540;9.268;2023-01-23T16:34:19;98.87;;;65.30;;
2644;SDS011;15377;48.540;9.268;2023-01-23T16:36:46;66.85;;;51.50;;
2644;SDS011;15377;48.540;9.268;2023-01-23T16:39:14;27.08;;;20.15;;
2644;SDS011;15377;48.540;9.268;2023-01-23T16:41:42;26.40;;;14.23;;
2644;SDS011;15377;48.540;9.268;2023-01-23T16:44:10;25.70;;;15.50;;
2644;SDS011;15377;48.540;9.268;2023-01-23T16:46:37;22.25;;;13.82;;
2644;SDS011;15377;48.540;9.268;2023-01-23T16:49:03;24.60;;;17.10;;